createdAt,value
2022-07-29T00:04:19.818Z,1.90
2022-07-29T00:06:53.964Z,1.80
2022-07-29T00:09:33.481Z,1.80
2022-07-29T00:12:26.289Z,1.80
2022-07-29T00:14:59.502Z,1.90
2022-07-29T00:17:31.589Z,2.00
2022-07-29T00:20:00.561Z,2.00
2022-07-29T00:22:31.569Z,1.70
2022-07-29T00:25:00.616Z,1.90
2022-07-29T00:27:28.787Z,2.10
2022-07-29T00:29:58.174Z,1.90
2022-07-29T00:32:26.006Z,1.90
2022-07-29T00:35:13.131Z,2.00
2022-07-29T00:37:41.130Z,2.20
2022-07-29T00:40:09.789Z,2.30
2022-07-29T00:42:51.974Z,2.10
2022-07-29T00:45:23.313Z,2.00
2022-07-29T00:47:51.658Z,2.30
2022-07-29T00:50:20.073Z,2.10
2022-07-29T00:52:48.588Z,1.90
2022-07-29T00:55:17.005Z,2.00
2022-07-29T00:57:47.493Z,2.30
2022-07-29T01:00:19.580Z,2.30
2022-07-29T01:02:49.439Z,2.00
2022-07-29T01:05:24.135Z,1.70
2022-07-29T01:07:55.470Z,2.20
2022-07-29T01:10:24.616Z,2.10
2022-07-29T01:12:56.205Z,2.30
2022-07-29T01:15:25.072Z,2.30
2022-07-29T01:18:08.998Z,2.20
2022-07-29T01:20:46.196Z,2.10
2022-07-29T01:23:35.221Z,2.10
2022-07-29T01:26:29.779Z,1.90
2022-07-29T01:29:09.545Z,2.20
2022-07-29T01:31:53.836Z,2.40
2022-07-29T01:34:55.523Z,2.60
2022-07-29T01:37:26.466Z,2.10
2022-07-29T01:39:58.542Z,2.10
2022-07-29T01:42:37.853Z,2.10
2022-07-29T01:47:46.515Z,2.20
2022-07-29T01:50:18.584Z,2.30
2022-07-29T01:52:57.931Z,1.90
2022-07-29T01:55:30.781Z,2.20
2022-07-29T01:58:01.264Z,2.20
2022-07-29T02:00:31.473Z,2.30
2022-07-29T02:03:06.905Z,2.40
2022-07-29T02:05:37.073Z,2.50
2022-07-29T02:08:07.549Z,2.50
2022-07-29T02:10:36.652Z,2.20
2022-07-29T02:13:06.788Z,2.30
2022-07-29T02:15:37.225Z,2.10
2022-07-29T02:18:16.899Z,2.90
2022-07-29T02:20:53.818Z,2.60
2022-07-29T02:23:25.056Z,2.50
2022-07-29T02:25:57.681Z,2.60
2022-07-29T02:28:28.707Z,2.10
2022-07-29T02:31:00.869Z,2.10
2022-07-29T02:33:31.877Z,2.20
2022-07-29T02:36:03.532Z,2.30
2022-07-29T02:38:51.442Z,2.70
2022-07-29T02:41:25.427Z,2.30
2022-07-29T02:43:58.285Z,2.30
2022-07-29T02:46:34.049Z,2.90
2022-07-29T02:49:14.660Z,2.30
2022-07-29T02:51:46.899Z,2.40
2022-07-29T02:54:30.082Z,2.20
2022-07-29T02:57:01.837Z,2.80
2022-07-29T02:59:35.371Z,2.00
2022-07-29T03:02:05.917Z,2.40
2022-07-29T03:04:35.589Z,2.20
2022-07-29T03:07:04.784Z,2.50
2022-07-29T03:09:33.227Z,3.00
2022-07-29T03:12:02.403Z,2.40
2022-07-29T03:19:28.730Z,2.20
2022-07-29T03:21:58.298Z,2.40
2022-07-29T03:24:28.128Z,3.00
2022-07-29T03:26:57.586Z,2.40
2022-07-29T03:32:08.322Z,2.50
2022-07-29T03:34:39.015Z,2.60
2022-07-29T03:37:08.474Z,3.00
2022-07-29T03:39:43.310Z,2.80
2022-07-29T03:42:15.311Z,2.50
2022-07-29T03:44:46.696Z,2.70
2022-07-29T03:47:16.462Z,2.80
2022-07-29T03:49:47.678Z,2.30
2022-07-29T03:52:16.064Z,2.30
2022-07-29T03:54:44.484Z,2.60
2022-07-29T03:57:13.261Z,2.50
2022-07-29T03:59:44.046Z,2.40
2022-07-29T04:02:14.638Z,2.50
2022-07-29T04:04:46.728Z,2.70
2022-07-29T04:07:15.763Z,2.20
2022-07-29T04:09:43.848Z,2.40
2022-07-29T04:12:12.992Z,2.80
2022-07-29T04:14:41.042Z,2.80
2022-07-29T04:17:09.021Z,2.80
2022-07-29T04:19:37.255Z,2.60
2022-07-29T04:22:05.730Z,2.80
2022-07-29T04:24:36.653Z,3.00
2022-07-29T04:27:06.693Z,2.40
2022-07-29T04:29:34.474Z,2.40
2022-07-29T04:32:02.349Z,2.70
2022-07-29T04:34:30.567Z,2.20
2022-07-29T04:36:58.555Z,2.60
2022-07-29T04:39:29.646Z,2.20
2022-07-29T04:41:59.332Z,2.90
2022-07-29T04:44:28.942Z,2.70
2022-07-29T04:46:57.841Z,2.60
2022-07-29T04:49:27.348Z,2.70
2022-07-29T04:51:55.790Z,2.40
2022-07-29T04:54:23.993Z,3.20
2022-07-29T04:56:54.140Z,2.80
2022-07-29T04:59:22.254Z,2.40
2022-07-29T05:01:50.954Z,2.30
2022-07-29T05:04:20.121Z,2.40
2022-07-29T05:06:49.312Z,2.50
2022-07-29T05:09:17.230Z,2.30
2022-07-29T05:11:45.444Z,2.50
2022-07-29T05:14:13.624Z,2.50
2022-07-29T05:16:44.504Z,2.60
2022-07-29T05:19:14.499Z,2.20
2022-07-29T05:21:42.846Z,2.10
2022-07-29T05:24:10.871Z,2.30
2022-07-29T05:26:39.331Z,2.20
2022-07-29T05:29:07.228Z,2.30
2022-07-29T05:31:56.063Z,2.10
2022-07-29T05:34:23.933Z,2.40
2022-07-29T05:36:52.122Z,2.30
2022-07-29T05:39:21.763Z,2.10
2022-07-29T05:41:52.036Z,2.20
2022-07-29T05:44:21.813Z,2.30
2022-07-29T05:46:53.651Z,2.70
2022-07-29T05:49:27.276Z,2.90
2022-07-29T05:51:55.924Z,2.60
2022-07-29T05:54:23.706Z,2.20
2022-07-29T05:56:51.660Z,2.40
2022-07-29T05:59:20.030Z,2.50
2022-07-29T06:01:48.617Z,2.40
2022-07-29T06:04:17.687Z,2.10
2022-07-29T06:06:46.659Z,2.30
2022-07-29T06:09:14.981Z,2.30
2022-07-29T06:11:43.109Z,2.30
2022-07-29T06:14:11.257Z,2.20
2022-07-29T06:16:39.246Z,2.10
2022-07-29T06:19:07.631Z,2.00
2022-07-29T06:21:38.734Z,2.10
2022-07-29T06:24:14.602Z,2.90
2022-07-29T06:26:43.793Z,2.40
2022-07-29T06:29:12.703Z,2.30
2022-07-29T06:31:40.626Z,2.60
2022-07-29T06:34:08.921Z,2.90
2022-07-29T06:36:37.876Z,3.00
2022-07-29T06:39:07.959Z,2.60
2022-07-29T06:41:36.845Z,2.60
2022-07-29T06:44:11.676Z,2.40
2022-07-29T06:46:39.708Z,2.40
2022-07-29T06:49:08.738Z,2.60
2022-07-29T06:51:37.512Z,2.80
2022-07-29T06:54:06.832Z,2.60
2022-07-29T06:56:40.080Z,2.20
2022-07-29T06:59:10.944Z,2.20
2022-07-29T07:01:41.589Z,2.50
2022-07-29T07:04:11.583Z,2.30
2022-07-29T07:06:39.665Z,2.30
2022-07-29T07:09:07.774Z,2.30
2022-07-29T07:14:04.474Z,2.60
2022-07-29T07:16:33.144Z,2.40
2022-07-29T07:19:01.887Z,2.40
2022-07-29T07:24:00.448Z,2.10
2022-07-29T07:26:29.547Z,2.00
2022-07-29T07:28:58.119Z,2.00
2022-07-29T07:31:26.581Z,2.10
2022-07-29T07:36:23.627Z,2.00
2022-07-29T07:38:51.505Z,1.80
2022-07-29T07:41:19.776Z,2.20
2022-07-29T07:43:48.008Z,2.10
2022-07-29T07:46:16.313Z,2.50
2022-07-29T07:48:44.909Z,2.40
2022-07-29T07:51:12.847Z,2.20
2022-07-29T07:53:40.983Z,2.60
2022-07-29T07:56:11.799Z,2.10
2022-07-29T07:58:40.658Z,2.10
2022-07-29T08:01:09.707Z,2.10
2022-07-29T08:03:38.574Z,1.70
2022-07-29T08:08:34.984Z,2.00
2022-07-29T08:11:09.017Z,2.00
2022-07-29T08:13:39.148Z,2.10
2022-07-29T08:16:15.962Z,2.40
2022-07-29T08:18:46.043Z,2.30
2022-07-29T08:21:16.143Z,2.10
2022-07-29T08:23:57.650Z,1.70
2022-07-29T08:26:29.375Z,2.00
2022-07-29T08:28:57.193Z,1.60
2022-07-29T08:31:25.129Z,1.90
2022-07-29T08:33:53.333Z,1.70
2022-07-29T08:36:22.274Z,1.80
2022-07-29T08:38:50.691Z,2.30
2022-07-29T08:41:22.252Z,1.80
2022-07-29T08:43:51.156Z,1.90
2022-07-29T08:46:20.248Z,1.50
2022-07-29T08:48:48.947Z,1.90
2022-07-29T08:51:26.502Z,1.80
2022-07-29T08:53:57.402Z,1.80
2022-07-29T08:58:56.123Z,1.70
2022-07-29T09:01:35.740Z,2.00
2022-07-29T09:04:11.160Z,1.70
2022-07-29T09:06:45.017Z,1.70
2022-07-29T09:09:14.838Z,1.80
2022-07-29T09:11:43.148Z,1.70
2022-07-29T09:14:13.582Z,2.10
2022-07-29T09:16:53.444Z,2.00
2022-07-29T09:19:30.698Z,1.90
2022-07-29T09:22:00.468Z,1.80
2022-07-29T09:24:43.395Z,1.90
2022-07-29T09:27:27.114Z,1.80
2022-07-29T09:30:05.513Z,2.00
2022-07-29T09:32:34.896Z,2.00
2022-07-29T09:35:23.126Z,2.20
2022-07-29T09:37:52.604Z,1.80
2022-07-29T09:40:23.516Z,2.00
2022-07-29T09:42:53.909Z,1.70
2022-07-29T09:45:34.415Z,1.80
2022-07-29T09:48:20.406Z,1.90
2022-07-29T09:50:50.696Z,1.80
2022-07-29T09:53:48.022Z,2.30
2022-07-29T09:56:17.073Z,2.50
2022-07-29T09:58:45.453Z,2.40
2022-07-29T10:01:15.169Z,2.10
2022-07-29T10:03:53.296Z,1.90
2022-07-29T10:06:21.807Z,1.90
2022-07-29T10:08:50.918Z,2.30
2022-07-29T10:11:20.453Z,1.80
2022-07-29T10:13:49.924Z,1.90
2022-07-29T10:16:18.104Z,1.80
2022-07-29T10:18:47.871Z,1.80
2022-07-29T10:21:34.973Z,1.80
2022-07-29T10:24:06.316Z,2.10
2022-07-29T10:26:34.649Z,2.00
2022-07-29T10:29:04.082Z,1.80
2022-07-29T10:31:45.651Z,2.30
2022-07-29T10:34:32.609Z,2.30
2022-07-29T10:37:19.745Z,2.10
2022-07-29T10:40:34.326Z,2.00
2022-07-29T10:46:08.666Z,2.20
2022-07-29T10:48:37.407Z,2.20
2022-07-29T10:51:09.773Z,1.90
2022-07-29T10:53:54.302Z,2.00
2022-07-29T10:56:27.489Z,1.90
2022-07-29T10:59:25.602Z,2.00
2022-07-29T11:02:10.674Z,1.80
2022-07-29T11:04:45.719Z,1.80
2022-07-29T11:07:17.536Z,1.70
2022-07-29T11:10:16.677Z,1.90
2022-07-29T11:12:48.913Z,1.90
2022-07-29T11:15:22.774Z,2.40
2022-07-29T11:17:59.419Z,2.00
2022-07-29T11:20:54.805Z,1.90
2022-07-29T11:23:42.854Z,2.10
2022-07-29T11:26:18.825Z,2.50
2022-07-29T11:28:49.849Z,2.10
2022-07-29T11:31:33.913Z,2.30
2022-07-29T11:34:23.589Z,2.10
2022-07-29T11:37:12.883Z,2.00
2022-07-29T11:39:44.502Z,2.10
2022-07-29T11:42:28.366Z,1.90
2022-07-29T11:45:09.254Z,1.90
2022-07-29T11:48:28.432Z,1.80
2022-07-29T11:50:50.317Z,2.20
2022-07-29T11:53:18.770Z,2.40
2022-07-29T11:55:51.514Z,2.00
2022-07-29T11:58:25.251Z,2.10
2022-07-29T12:00:56.191Z,1.90
2022-07-29T12:03:35.400Z,2.10
2022-07-29T12:06:13.409Z,2.20
2022-07-29T12:08:44.152Z,2.20
2022-07-29T12:11:20.378Z,1.80
2022-07-29T12:13:50.547Z,1.90
2022-07-29T12:16:25.626Z,1.90
2022-07-29T12:19:02.864Z,1.80
2022-07-29T12:21:52.350Z,2.00
2022-07-29T12:24:27.032Z,2.10
2022-07-29T12:27:00.747Z,2.50
2022-07-29T12:29:33.701Z,2.20
2022-07-29T12:32:05.275Z,2.00
2022-07-29T12:34:35.344Z,1.90
2022-07-29T12:37:03.533Z,2.10
2022-07-29T12:39:32.410Z,2.10
2022-07-29T12:42:04.608Z,2.20
2022-07-29T12:44:49.371Z,2.00
2022-07-29T12:47:19.317Z,1.90
2022-07-29T12:49:50.721Z,2.10
2022-07-29T12:52:32.433Z,2.30
2022-07-29T12:55:00.791Z,2.10
2022-07-29T12:57:29.485Z,1.90
2022-07-29T13:00:09.060Z,2.20
2022-07-29T13:02:39.346Z,2.00
2022-07-29T13:05:11.415Z,2.00
2022-07-29T13:07:54.325Z,2.10
2022-07-29T13:10:24.925Z,2.30
2022-07-29T13:13:16.483Z,2.20
2022-07-29T13:16:05.913Z,2.20
2022-07-29T13:18:38.820Z,2.40
2022-07-29T13:21:18.966Z,2.30
2022-07-29T13:23:47.385Z,2.50
2022-07-29T13:26:17.316Z,2.10
2022-07-29T13:28:45.552Z,2.00
2022-07-29T13:31:13.600Z,2.00
2022-07-29T13:33:41.619Z,1.90
2022-07-29T13:41:05.724Z,2.00
2022-07-29T13:43:34.210Z,2.10
2022-07-29T13:46:02.129Z,2.30
2022-07-29T13:48:29.975Z,1.90
2022-07-29T13:50:57.992Z,2.20
2022-07-29T13:55:55.994Z,2.20
2022-07-29T13:58:24.008Z,2.10
2022-07-29T14:03:19.806Z,2.10
2022-07-29T14:05:47.806Z,2.30
2022-07-29T14:08:16.235Z,2.10
2022-07-29T14:10:44.119Z,2.10
2022-07-29T14:13:24.485Z,2.30
2022-07-29T14:15:54.046Z,2.20
2022-07-29T14:18:21.910Z,2.60
2022-07-29T14:20:50.554Z,2.20
2022-07-29T14:23:20.252Z,2.20
2022-07-29T14:25:49.419Z,2.20
2022-07-29T14:28:17.874Z,2.20
2022-07-29T14:30:46.271Z,2.00
2022-07-29T14:33:14.686Z,2.00
2022-07-29T14:35:42.394Z,2.50
2022-07-29T14:38:10.495Z,1.70
2022-07-29T14:40:39.057Z,2.30
2022-07-29T14:43:07.073Z,2.20
2022-07-29T14:45:35.316Z,2.00
2022-07-29T14:50:31.807Z,2.20
2022-07-29T14:53:01.818Z,2.50
2022-07-29T14:55:29.958Z,2.10
2022-07-29T14:58:07.699Z,2.10
2022-07-29T15:00:38.144Z,2.40
2022-07-29T15:03:06.474Z,2.40
2022-07-29T15:05:39.945Z,2.10
2022-07-29T15:08:09.178Z,2.20
2022-07-29T15:10:37.465Z,2.20
2022-07-29T15:13:06.332Z,2.40
2022-07-29T15:15:34.383Z,2.30
2022-07-29T15:18:02.352Z,2.10
2022-07-29T15:20:31.999Z,2.30
2022-07-29T15:22:59.863Z,2.30
2022-07-29T15:25:27.974Z,2.20
2022-07-29T15:28:01.142Z,2.50
2022-07-29T15:30:34.057Z,2.30
2022-07-29T15:33:04.610Z,2.30
2022-07-29T15:35:33.409Z,2.40
2022-07-29T15:38:08.954Z,2.40
2022-07-29T15:43:07.631Z,2.50
2022-07-29T15:45:40.488Z,2.30
2022-07-29T15:48:10.134Z,2.40
2022-07-29T15:50:47.130Z,2.30
2022-07-29T15:53:15.311Z,2.30
2022-07-29T15:55:43.003Z,2.60
2022-07-29T15:58:13.715Z,2.30
2022-07-29T16:00:41.584Z,2.50
2022-07-29T16:03:09.342Z,2.40
2022-07-29T16:05:37.752Z,2.50
2022-07-29T16:08:05.654Z,2.40
2022-07-29T16:10:33.419Z,2.30
2022-07-29T16:13:01.965Z,2.40
2022-07-29T16:15:30.102Z,2.50
2022-07-29T16:20:25.970Z,2.10
2022-07-29T16:22:54.251Z,2.50
2022-07-29T16:25:29.567Z,2.70
2022-07-29T16:28:06.901Z,2.30
2022-07-29T16:33:07.795Z,2.80
2022-07-29T16:35:40.257Z,2.70
2022-07-29T16:38:08.141Z,2.80
2022-07-29T16:40:36.840Z,2.60
2022-07-29T16:43:05.023Z,2.50
2022-07-29T16:45:45.587Z,2.60
2022-07-29T16:48:15.297Z,2.40
2022-07-29T16:50:46.234Z,3.00
2022-07-29T16:53:14.022Z,2.50
2022-07-29T16:55:42.782Z,2.50
2022-07-29T16:58:11.157Z,2.90
2022-07-29T17:00:39.113Z,2.50
2022-07-29T17:05:52.564Z,2.20
2022-07-29T17:08:22.992Z,2.70
2022-07-29T17:10:50.847Z,2.80
2022-07-29T17:13:18.666Z,2.70
2022-07-29T17:15:47.117Z,2.50
2022-07-29T17:20:42.571Z,2.40
2022-07-29T17:23:10.875Z,2.60
2022-07-29T17:25:38.718Z,2.60
2022-07-29T17:28:06.514Z,2.60
2022-07-29T17:30:34.965Z,2.70
2022-07-29T17:33:02.711Z,2.70
2022-07-29T17:35:49.123Z,2.70
2022-07-29T17:38:17.704Z,3.00
2022-07-29T17:43:13.919Z,3.00
2022-07-29T17:45:49.469Z,2.70
2022-07-29T17:48:21.542Z,2.70
2022-07-29T17:50:52.212Z,2.80
2022-07-29T17:53:20.154Z,2.90
2022-07-29T17:55:49.915Z,2.90
2022-07-29T17:58:17.972Z,2.90
2022-07-29T18:00:45.744Z,2.80
2022-07-29T18:03:14.349Z,2.90
2022-07-29T18:05:42.445Z,2.90
2022-07-29T18:08:10.440Z,2.60
2022-07-29T18:10:38.515Z,2.60
2022-07-29T18:13:07.338Z,3.00
2022-07-29T18:15:35.047Z,3.10
2022-07-29T18:18:02.965Z,2.80
2022-07-29T18:20:32.246Z,2.80
2022-07-29T18:23:00.609Z,2.80
2022-07-29T18:25:29.866Z,2.80
2022-07-29T18:28:00.553Z,2.90
2022-07-29T18:30:29.835Z,3.00
2022-07-29T18:33:19.793Z,3.20
2022-07-29T18:35:49.719Z,3.00
2022-07-29T18:38:17.843Z,3.20
2022-07-29T18:40:46.224Z,2.70
2022-07-29T18:43:15.806Z,2.90
2022-07-29T18:45:43.690Z,2.90
2022-07-29T18:48:13.207Z,3.10
2022-07-29T18:50:42.013Z,3.20
2022-07-29T18:53:09.872Z,3.10
2022-07-29T18:55:38.104Z,3.30
2022-07-29T18:58:07.285Z,3.10
2022-07-29T19:00:35.600Z,2.80
2022-07-29T19:03:03.742Z,2.80
2022-07-29T19:05:32.480Z,3.00
2022-07-29T19:08:00.588Z,3.10
2022-07-29T19:10:28.485Z,3.00
2022-07-29T19:12:56.994Z,3.00
2022-07-29T19:15:25.578Z,2.90
2022-07-29T19:17:56.549Z,3.20
2022-07-29T19:20:27.676Z,3.10
2022-07-29T19:22:56.354Z,3.40
2022-07-29T19:25:25.075Z,2.90
2022-07-29T19:27:54.773Z,3.30
2022-07-29T19:30:22.909Z,3.30
2022-07-29T19:32:50.676Z,3.50
2022-07-29T19:35:28.050Z,3.50
2022-07-29T19:37:57.852Z,3.40
2022-07-29T19:40:26.968Z,3.50
2022-07-29T19:42:55.314Z,3.20
2022-07-29T19:47:56.538Z,3.80
2022-07-29T19:50:27.725Z,3.70
2022-07-29T19:52:56.938Z,4.00
2022-07-29T19:55:24.764Z,3.70
2022-07-29T19:57:55.812Z,3.50
2022-07-29T20:00:25.146Z,4.00
2022-07-29T20:02:56.529Z,3.90
2022-07-29T20:05:27.812Z,3.70
2022-07-29T20:07:56.333Z,4.00
2022-07-29T20:10:24.430Z,3.70
2022-07-29T20:12:53.762Z,4.40
2022-07-29T20:15:23.645Z,4.20
2022-07-29T20:17:56.635Z,4.30
2022-07-29T20:20:26.111Z,4.00
2022-07-29T20:22:54.547Z,4.40
2022-07-29T20:25:23.007Z,4.10
2022-07-29T20:30:22.177Z,4.70
2022-07-29T20:32:50.744Z,4.20
2022-07-29T20:37:52.425Z,4.10
2022-07-29T20:40:26.932Z,4.30
2022-07-29T20:42:55.933Z,4.10
2022-07-29T20:45:25.044Z,4.90
2022-07-29T20:47:53.287Z,4.30
2022-07-29T20:50:23.667Z,4.00
2022-07-29T20:52:52.759Z,3.70
2022-07-29T20:55:21.686Z,4.20
2022-07-29T21:00:17.953Z,4.30
2022-07-29T21:02:47.403Z,4.50
2022-07-29T21:07:43.388Z,3.80
2022-07-29T21:10:11.725Z,4.40
2022-07-29T21:12:40.019Z,4.10
2022-07-29T21:15:08.384Z,4.00
2022-07-29T21:20:08.777Z,4.10
2022-07-29T21:22:36.574Z,4.60
2022-07-29T21:25:06.938Z,4.80
2022-07-29T21:27:53.349Z,5.20
2022-07-29T21:30:22.135Z,4.50
2022-07-29T21:32:50.016Z,4.70
2022-07-29T21:35:58.940Z,4.60
2022-07-29T21:38:06.252Z,4.80
2022-07-29T21:40:34.721Z,4.70
2022-07-29T21:43:02.759Z,4.80
2022-07-29T21:45:31.037Z,5.00
2022-07-29T21:48:00.614Z,5.10
2022-07-29T21:50:28.467Z,4.80
2022-07-29T21:52:57.658Z,5.60
2022-07-29T21:55:27.493Z,4.90
2022-07-29T21:57:57.403Z,4.90
2022-07-29T22:00:25.887Z,5.00
2022-07-29T22:02:54.587Z,4.60
2022-07-29T22:05:23.136Z,5.40
2022-07-29T22:07:54.567Z,4.60
2022-07-29T22:10:28.233Z,4.80
2022-07-29T22:13:01.993Z,5.20
2022-07-29T22:15:30.848Z,5.00
2022-07-29T22:18:00.407Z,5.30
2022-07-29T22:20:28.376Z,5.30
2022-07-29T22:22:57.277Z,5.10
2022-07-29T22:25:27.175Z,5.20
2022-07-29T22:27:55.386Z,5.00
2022-07-29T22:30:23.136Z,5.00
2022-07-29T22:32:51.079Z,4.60
2022-07-29T22:35:18.978Z,4.60
2022-07-29T22:37:46.962Z,4.60
2022-07-29T22:40:14.989Z,4.50
2022-07-29T22:42:44.408Z,4.00
2022-07-29T22:45:14.094Z,4.10
2022-07-29T22:47:48.472Z,3.70
2022-07-29T22:50:17.681Z,3.90
2022-07-29T22:52:46.997Z,4.60
2022-07-29T22:55:15.655Z,3.80
2022-07-29T22:57:43.404Z,3.40
2022-07-29T23:00:13.595Z,3.70
2022-07-29T23:02:41.796Z,3.60
2022-07-29T23:05:10.593Z,4.40
2022-07-29T23:07:39.364Z,3.40
2022-07-29T23:10:07.927Z,3.60
2022-07-29T23:15:09.480Z,3.20
2022-07-29T23:17:41.419Z,3.70
2022-07-29T23:20:10.401Z,3.20
2022-07-29T23:22:38.249Z,3.20
2022-07-29T23:25:06.731Z,3.10
2022-07-29T23:27:34.903Z,3.40
2022-07-29T23:30:05.304Z,2.80
2022-07-29T23:35:01.298Z,2.90
2022-07-29T23:37:29.085Z,3.00
2022-07-29T23:39:57.363Z,3.10
2022-07-29T23:42:25.517Z,2.60
2022-07-29T23:44:53.763Z,2.60
2022-07-29T23:47:21.758Z,2.50
2022-07-29T23:49:50.239Z,2.10
2022-07-29T23:52:21.362Z,2.60
2022-07-29T23:54:49.305Z,2.50
2022-07-29T23:57:18.486Z,2.40
2022-07-29T23:59:47.549Z,2.50
